Carp Lake, MI (49718)

11:36 AM EDT on September 02, 2015 (GMT -0400)
North Levering MI | | Change Station
CLOSE
Current Station
Personal Weather Station
Location: Levering, MI
Elevation: 741 ft
Nearby Weather Stations

Elev 741 ft 45.67 °N, 84.79 °W | Updated 1 second ago

Mostly Cloudy
Mostly Cloudy
79.9 °F
Feels Like 84 °F
N
0.4
Wind Variable Wind from SW
Gusts 4.3 mph

Today
High -- | Low -- °F
--% Chance of Precip.
Yesterday
High -- | Low -- °F
Precip. -- in
7:01 AM 8:15 PM
Waning Gibbous, 79% visible
Pressure 29.98 in
Visibility 9.0 miles
Clouds Scattered Clouds 4100 ft
Heat Index 84 °F
Dew Point 72 °F
Humidity 78%
Rainfall 0.00 in
Snow Depth Not available.
UV 4 out of 12
Pollen 10.20 out of 12
Air Quality Not available.
Flu Activity Not available.
METAR KPLN 021454Z AUTO 00000KT 9SM SCT041 27/22 A2999 RMK AO2 SLP151 T02670217 51002
Pressure 29.98 in
Visibility 9.0 miles
Clouds Scattered Clouds 4100 ft
Heat Index 84 °F
Dew Point 72 °F
Humidity 78%
Rainfall 0.00 in
Snow Depth Not available.
UV 4 out of 12
Pollen 10.20 out of 12
Air Quality Not available.
Flu Activity Not available.
METAR KPLN 021454Z AUTO 00000KT 9SM SCT041 27/22 A2999 RMK AO2 SLP151 T02670217 51002
Nowcast | as of 11:00 am EDT on September 2, 2015

At 12 PM...partly cloudy. Temperature 77. West winds 5 mph. At 2 PM...partly cloudy. Temperature 80. Northwest winds 6 mph. At 4 PM...partly cloudy. Temperature 81. Northwest winds 7 mph. At 6 PM...partly cloudy. Temperature 77. West winds 6 mph.

×

10-Day Weather Forecast

×

Almanac

Astronomy

Sep. 02, 2015 Rise Set
Actual Time
Civil Twilight
Nautical Twilight
Astronomical Twilight
Moon
Length of Visible Light
Length of Day
Tomorrow will be .
, % of the Moon is Illuminated

Today's Extremes

State Highs State Lows

Community

WunderPhotos

Upload Photos

1,851,773 photos uploaded!

WunderBlogs® & News

Nearby

Air Quality

  Air Quality AQ Index Pollutant
Not available.

Snow Depth

Station Depth Elevation

Earthquake Activity

City Distance Mag. Time & Date
Minimum magnitude displayed is 2.5.

Coastal Water Temperatures

Place Temperature

Stations

Nearby Weather Stations

Station Location Temp. Windchill Dew Point Humidity Wind Precip. Elev Updated Type